Time;durP1;ratioP1;P1;durP2;ratioP2;P2;SDS_P1;SDS_P2;PMS_P1;PMS_P2;Temp;Humidity;BMP_temperature;BMP_pressure;BME280_temperature;BME280_humidity;BME280_pressure;Samples;Min_cycle;Max_cycle;Signal;HPM_P1;HPM_P2
2022/06/13 00:02:22;;;;;;;6.28;2.13;;;13.80;99.90;;;;;;5007544;28;20517;-85
2022/06/13 00:04:49;;;;;;;5.72;1.80;;;13.80;99.90;;;;;;5003731;28;20145;-85
2022/06/13 00:07:16;;;;;;;4.80;1.85;;;13.80;99.90;;;;;;5001189;28;20060;-85
2022/06/13 00:09:43;;;;;;;4.68;1.58;;;13.90;99.90;;;;;;5004257;28;20084;-86
2022/06/13 00:12:10;;;;;;;6.10;2.60;;;13.90;99.90;;;;;;5006015;28;20042;-86
2022/06/13 00:14:37;;;;;;;3.38;1.80;;;13.90;99.90;;;;;;5000586;28;20049;-86
2022/06/13 00:17:04;;;;;;;3.80;2.13;;;13.90;99.90;;;;;;5001757;28;20034;-86
2022/06/13 00:19:31;;;;;;;5.72;1.75;;;13.90;99.90;;;;;;5005791;28;20102;-86
2022/06/13 00:21:58;;;;;;;3.40;1.17;;;14.00;99.90;;;;;;4989589;28;20369;-86
2022/06/13 00:24:25;;;;;;;2.28;1.95;;;14.00;99.90;;;;;;5008427;28;20050;-86
2022/06/13 00:26:51;;;;;;;6.47;2.53;;;13.90;99.90;;;;;;5005154;28;20511;-86
2022/06/13 00:29:18;;;;;;;7.80;2.60;;;13.90;99.90;;;;;;5005510;28;20038;-87
2022/06/13 00:31:45;;;;;;;3.67;1.77;;;13.90;99.90;;;;;;5006565;28;20045;-87
2022/06/13 00:34:12;;;;;;;2.72;2.25;;;13.90;99.90;;;;;;5002241;28;20046;-86
2022/06/13 00:36:39;;;;;;;3.33;1.58;;;13.90;99.90;;;;;;5001419;28;20190;-86
2022/06/13 00:39:07;;;;;;;6.68;2.25;;;13.90;99.90;;;;;;5002924;28;20108;-86
2022/06/13 00:41:39;;;;;;;5.68;3.17;;;14.00;99.90;;;;;;5007356;28;20049;-86
2022/06/13 00:44:18;;;;;;;3.05;1.90;;;13.90;99.90;;;;;;5010439;28;20072;-87
2022/06/13 00:46:45;;;;;;;2.25;1.38;;;13.80;99.90;;;;;;4998077;28;20470;-86
2022/06/13 00:49:24;;;;;;;5.45;2.05;;;13.80;99.90;;;;;;5012815;28;20042;-86
2022/06/13 00:52:05;;;;;;;4.47;1.77;;;13.80;99.90;;;;;;5004613;28;20096;-86
2022/06/13 00:54:36;;;;;;;3.33;2.28;;;13.80;99.90;;;;;;4999096;28;20043;-87
2022/06/13 00:57:08;;;;;;;5.47;2.45;;;13.70;99.90;;;;;;5000772;28;20463;-87
2022/06/13 00:59:36;;;;;;;7.35;3.17;;;13.70;99.90;;;;;;5010193;28;20745;-87
2022/06/13 01:02:03;;;;;;;1.58;1.38;;;13.70;99.90;;;;;;4999345;28;20050;-88
2022/06/13 01:04:31;;;;;;;2.40;2.20;;;13.70;99.90;;;;;;5004095;28;20057;-86
2022/06/13 01:07:00;;;;;;;4.88;2.25;;;13.70;99.90;;;;;;5006956;28;20683;-86
2022/06/13 01:12:15;;;;;;;2.42;1.48;;;13.70;99.90;;;;;;4996735;28;20570;-86
2022/06/13 01:14:47;;;;;;;3.47;1.35;;;13.60;99.90;;;;;;5005902;28;20050;-86
2022/06/13 01:17:48;;;;;;;4.97;1.98;;;13.60;99.90;;;;;;4999550;28;20161;-85
2022/06/13 01:20:24;;;;;;;7.68;1.88;;;13.60;99.90;;;;;;5002498;28;20404;-85
2022/06/13 01:23:06;;;;;;;4.30;1.63;;;13.60;99.90;;;;;;5007550;28;20687;-86
2022/06/13 01:25:39;;;;;;;4.70;1.50;;;13.50;99.90;;;;;;5008892;28;20053;-84
2022/06/13 01:28:33;;;;;;;3.88;1.65;;;13.50;99.90;;;;;;5005651;28;20049;-85
2022/06/13 01:31:08;;;;;;;3.80;1.75;;;13.50;99.90;;;;;;4978431;28;20042;-86
2022/06/13 01:34:06;;;;;;;2.20;2.00;;;13.40;99.90;;;;;;4981107;28;20049;-86
2022/06/13 01:36:45;;;;;;;5.18;2.10;;;13.40;99.90;;;;;;5000235;28;20537;-86
2022/06/13 01:39:27;;;;;;;2.78;1.75;;;13.40;99.90;;;;;;5000757;28;20521;-86
2022/06/13 01:42:11;;;;;;;3.28;2.03;;;13.30;99.90;;;;;;4987420;28;20050;-86
2022/06/13 01:45:05;;;;;;;3.50;1.85;;;13.20;99.90;;;;;;5003695;28;20045;-85
2022/06/13 01:47:37;;;;;;;3.53;1.80;;;13.20;99.90;;;;;;5000528;28;20487;-86
2022/06/13 01:50:30;;;;;;;3.47;1.63;;;13.10;99.90;;;;;;4998536;28;20061;-85
2022/06/13 01:53:08;;;;;;;2.28;1.88;;;13.10;99.90;;;;;;4984931;28;20089;-85
2022/06/13 01:55:47;;;;;;;3.92;1.95;;;13.10;99.90;;;;;;5007759;28;20476;-85
2022/06/13 01:58:36;;;;;;;2.78;1.70;;;13.00;99.90;;;;;;5001277;28;20525;-85
2022/06/13 02:01:09;;;;;;;3.92;1.73;;;12.90;99.90;;;;;;5002164;28;20060;-85
2022/06/13 02:03:58;;;;;;;2.70;1.88;;;12.90;99.90;;;;;;5003163;28;20539;-85
2022/06/13 02:06:32;;;;;;;1.95;1.60;;;12.90;99.90;;;;;;4996902;28;20157;-85
2022/06/13 02:09:07;;;;;;;4.00;1.90;;;12.90;99.90;;;;;;5003673;28;20750;-85
2022/06/13 02:11:43;;;;;;;4.85;1.80;;;12.90;99.90;;;;;;4990973;28;20264;-85
2022/06/13 02:14:22;;;;;;;3.15;2.35;;;12.80;99.90;;;;;;5003537;28;20061;-85
2022/06/13 02:17:21;;;;;;;4.07;2.88;;;12.80;99.90;;;;;;5000709;28;20054;-85
2022/06/13 02:19:59;;;;;;;6.93;2.80;;;12.80;99.90;;;;;;4999962;28;20141;-85
2022/06/13 02:22:32;;;;;;;8.43;3.08;;;12.90;99.90;;;;;;4999308;28;20051;-86
2022/06/13 02:25:01;;;;;;;5.30;2.85;;;13.00;99.90;;;;;;5005721;28;20061;-86
2022/06/13 02:27:35;;;;;;;5.47;2.75;;;13.10;99.90;;;;;;4982603;28;20088;-85
2022/06/13 02:30:07;;;;;;;6.72;3.97;;;13.20;99.90;;;;;;5001378;28;20376;-84
2022/06/13 02:32:47;;;;;;;7.90;3.60;;;13.30;99.90;;;;;;5005583;28;20464;-85
2022/06/13 02:35:33;;;;;;;7.72;3.35;;;13.30;99.90;;;;;;4985245;28;20153;-84
2022/06/13 02:38:07;;;;;;;7.53;2.88;;;13.40;99.90;;;;;;4998736;28;20525;-85
2022/06/13 02:40:39;;;;;;;5.80;2.90;;;13.50;99.90;;;;;;4997925;28;20042;-86
2022/06/13 02:43:17;;;;;;;4.18;2.42;;;13.50;99.90;;;;;;5005241;28;20388;-86
2022/06/13 02:45:53;;;;;;;6.72;3.22;;;13.60;99.90;;;;;;4999424;28;20042;-86
2022/06/13 02:48:31;;;;;;;9.75;2.97;;;13.60;99.90;;;;;;5001505;28;20405;-86
2022/06/13 02:51:05;;;;;;;10.02;3.00;;;13.60;99.90;;;;;;5002997;28;20042;-85
2022/06/13 02:53:40;;;;;;;8.43;2.97;;;13.60;99.90;;;;;;5005124;28;20530;-85
2022/06/13 02:56:12;;;;;;;7.78;3.10;;;13.50;99.90;;;;;;4997582;28;20063;-85
2022/06/13 02:59:23;;;;;;;6.95;3.10;;;13.50;99.90;;;;;;5005486;28;20050;-85
2022/06/13 03:01:54;;;;;;;7.03;3.42;;;13.50;99.90;;;;;;5006322;28;20049;-86
2022/06/13 03:04:47;;;;;;;9.95;3.00;;;13.50;99.90;;;;;;5010966;28;20046;-86
2022/06/13 03:07:40;;;;;;;5.18;2.33;;;13.60;99.90;;;;;;5008816;28;20470;-86
2022/06/13 03:10:42;;;;;;;7.05;2.47;;;13.60;99.90;;;;;;5009197;28;20380;-86
2022/06/13 03:13:26;;;;;;;4.57;2.25;;;13.60;99.90;;;;;;5004133;28;20053;-87
2022/06/13 03:16:02;;;;;;;5.13;2.80;;;13.60;99.90;;;;;;5003343;28;20042;-87
2022/06/13 03:18:39;;;;;;;5.10;2.92;;;13.70;99.90;;;;;;4984776;28;20132;-84
2022/06/13 03:21:11;;;;;;;8.70;2.88;;;13.70;99.90;;;;;;4984109;28;20050;-86
2022/06/13 03:23:45;;;;;;;6.38;3.00;;;13.80;99.90;;;;;;5004803;28;20042;-85
2022/06/13 03:26:19;;;;;;;6.13;4.10;;;13.80;99.90;;;;;;5008533;28;20058;-85
2022/06/13 03:28:57;;;;;;;6.38;4.03;;;13.90;99.90;;;;;;4993234;28;20064;-85
2022/06/13 03:31:34;;;;;;;4.88;2.63;;;13.90;99.90;;;;;;5009140;28;20042;-87
2022/06/13 03:34:08;;;;;;;6.38;2.55;;;14.00;99.90;;;;;;5006090;28;20534;-86
2022/06/13 03:36:42;;;;;;;5.47;2.67;;;14.00;99.90;;;;;;5002419;28;20126;-87
2022/06/13 03:39:12;;;;;;;5.07;3.38;;;14.00;99.90;;;;;;5003274;28;20152;-86
2022/06/13 03:41:48;;;;;;;4.78;2.55;;;14.00;99.90;;;;;;4999456;28;20046;-87
2022/06/13 03:44:33;;;;;;;10.10;2.97;;;14.00;99.90;;;;;;4997437;28;20050;-86
2022/06/13 03:47:10;;;;;;;6.45;3.15;;;13.90;99.90;;;;;;5005661;28;20069;-86
2022/06/13 03:49:50;;;;;;;8.77;3.25;;;13.90;99.90;;;;;;5002201;28;20400;-87
2022/06/13 03:52:18;;;;;;;2.45;1.92;;;13.90;99.90;;;;;;4988514;28;20049;-86
2022/06/13 03:54:53;;;;;;;4.00;2.95;;;13.90;99.90;;;;;;5005918;28;20808;-87
2022/06/13 03:57:40;;;;;;;5.95;3.05;;;13.90;99.90;;;;;;5002763;28;20057;-87
2022/06/13 04:00:11;;;;;;;6.70;3.13;;;13.90;99.90;;;;;;5000607;28;20104;-84
2022/06/13 04:02:39;;;;;;;;;;;13.90;99.90;;;;;;5003418;28;20049;-85
2022/06/13 04:05:22;;;;;;;9.63;2.42;;;14.00;99.90;;;;;;5009901;28;19929;-87
2022/06/13 04:07:49;;;;;;;5.95;3.08;;;14.00;99.90;;;;;;5010475;28;20045;-86
2022/06/13 04:10:17;;;;;;;8.90;3.33;;;14.10;99.90;;;;;;5007453;28;20045;-87
2022/06/13 04:13:20;;;;;;;3.33;2.30;;;14.10;99.90;;;;;;4998659;28;20054;-88
2022/06/13 04:16:06;;;;;;;6.03;2.78;;;14.10;99.90;;;;;;5005976;28;20038;-86
2022/06/13 04:18:57;;;;;;;8.00;3.50;;;14.10;99.90;;;;;;4999974;28;20487;-87
2022/06/13 04:21:59;;;;;;;3.78;2.35;;;14.10;99.90;;;;;;4984144;28;20093;-87
2022/06/13 04:24:46;;;;;;;8.00;2.90;;;14.00;99.90;;;;;;4986514;28;20482;-87
2022/06/13 04:27:36;;;;;;;4.82;2.25;;;14.00;99.90;;;;;;4976119;28;20077;-87
2022/06/13 04:30:10;;;;;;;;;;;14.00;99.90;;;;;;4966666;28;20061;-87
2022/06/13 04:33:05;;;;;;;5.47;2.63;;;14.00;99.90;;;;;;4969817;28;19925;-88
2022/06/13 04:35:34;;;;;;;11.55;3.58;;;14.10;99.90;;;;;;4984588;28;20463;-88
2022/06/13 04:38:09;;;;;;;4.07;2.55;;;14.20;99.90;;;;;;4964320;28;20503;-87
2022/06/13 04:40:39;;;;;;;12.23;3.47;;;14.30;99.90;;;;;;4982515;28;20077;-88
2022/06/13 04:43:09;;;;;;;7.78;2.83;;;14.40;99.90;;;;;;4945625;28;20152;-88
2022/06/13 04:46:08;;;;;;;7.85;2.95;;;14.40;99.90;;;;;;4985025;28;20049;-86
2022/06/13 04:48:40;;;;;;;4.55;2.40;;;14.50;99.90;;;;;;4978877;28;21733;-88
2022/06/13 04:51:14;;;;;;;5.18;2.97;;;14.50;99.90;;;;;;4982787;28;20055;-89
2022/06/13 04:53:50;;;;;;;3.33;2.33;;;14.50;99.90;;;;;;4985571;28;20491;-87
2022/06/13 04:56:21;;;;;;;6.45;2.25;;;14.50;99.90;;;;;;4980986;28;20046;-87
2022/06/13 04:58:52;;;;;;;4.47;1.75;;;14.50;99.90;;;;;;4977012;28;20419;-88
2022/06/13 05:01:33;;;;;;;7.50;2.17;;;14.50;99.90;;;;;;4986150;28;20081;-87
2022/06/13 05:04:03;;;;;;;3.28;2.13;;;14.50;99.90;;;;;;4984954;28;20658;-87
2022/06/13 05:06:36;;;;;;;5.88;2.17;;;14.60;99.90;;;;;;4963727;28;20046;-88
2022/06/13 05:09:09;;;;;;;5.78;2.03;;;14.60;99.90;;;;;;4983785;28;20070;-87
2022/06/13 05:11:55;;;;;;;6.25;2.63;;;14.60;99.90;;;;;;4986051;28;20486;-86
2022/06/13 05:14:28;;;;;;;3.55;2.15;;;14.60;99.90;;;;;;4978306;28;20089;-87
2022/06/13 05:17:26;;;;;;;4.05;2.03;;;14.60;99.90;;;;;;4984102;28;20050;-86
2022/06/13 05:20:06;;;;;;;5.63;1.92;;;14.60;99.90;;;;;;4998470;28;20463;-88
2022/06/13 05:22:53;;;;;;;8.25;2.55;;;14.70;99.90;;;;;;5001818;28;20034;-87
2022/06/13 05:25:39;;;;;;;10.02;2.70;;;14.70;99.90;;;;;;4994477;28;20155;-86
2022/06/13 05:28:07;;;;;;;7.75;2.72;;;14.80;99.90;;;;;;4982896;28;20693;-87
2022/06/13 05:30:33;;;;;;;6.65;3.45;;;14.90;99.90;;;;;;4980596;28;20057;-86
2022/06/13 05:33:05;;;;;;;7.00;3.00;;;15.00;99.90;;;;;;5001853;28;20116;-87
2022/06/13 05:35:35;;;;;;;4.72;2.60;;;15.10;99.90;;;;;;4989025;28;20049;-86
2022/06/13 05:38:04;;;;;;;6.93;2.42;;;15.10;99.90;;;;;;5004209;28;20065;-84
2022/06/13 05:40:31;;;;;;;4.90;3.33;;;15.10;99.90;;;;;;4985127;28;20112;-87
2022/06/13 05:42:58;;;;;;;13.52;4.60;;;15.10;99.90;;;;;;5003081;28;20050;-86
2022/06/13 05:45:25;;;;;;;5.45;2.55;;;15.20;99.90;;;;;;4997638;28;20057;-85
2022/06/13 05:47:53;;;;;;;10.27;2.75;;;15.20;99.90;;;;;;5003587;28;20091;-85
2022/06/13 05:50:24;;;;;;;5.82;2.53;;;15.10;99.90;;;;;;5004078;28;20048;-87
2022/06/13 05:52:54;;;;;;;9.18;3.63;;;15.20;99.90;;;;;;5007051;28;20054;-87
2022/06/13 05:55:21;;;;;;;8.35;5.13;;;15.30;99.90;;;;;;4999914;28;20837;-88
2022/06/13 05:58:04;;;;;;;4.60;2.20;;;15.30;99.90;;;;;;5003513;28;20494;-87
2022/06/13 06:00:41;;;;;;;6.18;2.38;;;15.30;99.90;;;;;;4985371;28;20133;-89
2022/06/13 06:03:08;;;;;;;8.00;2.42;;;15.30;99.90;;;;;;4998835;28;20599;-89
2022/06/13 06:05:38;;;;;;;15.48;3.67;;;15.40;99.90;;;;;;4999535;28;20418;-88
2022/06/13 06:08:06;;;;;;;11.48;2.72;;;15.40;99.90;;;;;;5006540;28;20523;-88
2022/06/13 06:10:37;;;;;;;4.97;2.65;;;15.50;99.90;;;;;;5003352;28;20108;-88
2022/06/13 06:13:04;;;;;;;6.50;3.35;;;15.50;99.90;;;;;;5005563;28;20073;-87
2022/06/13 06:15:31;;;;;;;5.30;2.55;;;15.60;99.90;;;;;;4998027;28;20572;-87
2022/06/13 06:17:58;;;;;;;7.03;2.95;;;15.70;99.90;;;;;;5005269;28;20050;-86
2022/06/13 06:20:25;;;;;;;7.00;3.47;;;15.70;99.90;;;;;;4997292;28;20355;-85
2022/06/13 06:22:52;;;;;;;7.43;3.10;;;15.80;99.90;;;;;;4983239;28;20061;-85
2022/06/13 06:25:19;;;;;;;5.13;2.92;;;15.90;99.90;;;;;;5004285;28;20433;-86
2022/06/13 06:27:47;;;;;;;5.78;3.38;;;15.90;99.90;;;;;;5011104;28;20049;-87
2022/06/13 06:30:16;;;;;;;6.40;3.33;;;15.90;99.90;;;;;;5005875;28;20049;-87
2022/06/13 06:32:46;;;;;;;7.10;2.58;;;15.80;99.90;;;;;;4989655;28;20057;-87
2022/06/13 06:35:14;;;;;;;5.68;3.58;;;15.70;99.90;;;;;;5001690;28;20058;-87
2022/06/13 06:37:47;;;;;;;9.70;4.50;;;15.60;99.90;;;;;;5003380;28;20702;-88
2022/06/13 06:40:16;;;;;;;5.53;3.38;;;15.60;99.90;;;;;;5005820;28;20046;-87
2022/06/13 06:42:43;;;;;;;6.95;2.78;;;15.60;99.90;;;;;;5003005;28;20100;-87
2022/06/13 06:45:23;;;;;;;10.35;3.42;;;15.60;99.90;;;;;;5005663;28;20133;-87
2022/06/13 06:47:51;;;;;;;5.50;2.33;;;15.60;99.90;;;;;;5005983;28;20483;-87
2022/06/13 06:50:21;;;;;;;5.28;2.45;;;15.70;99.90;;;;;;4999641;28;20490;-88
2022/06/13 06:52:49;;;;;;;5.47;3.47;;;15.80;99.90;;;;;;5005125;28;20411;-87
2022/06/13 07:00:59;;;;;;;11.80;3.35;;;15.70;99.90;;;;;;4989864;28;20148;-86
2022/06/13 07:03:26;;;;;;;8.10;2.33;;;15.70;99.90;;;;;;5008308;28;20049;-87
2022/06/13 07:05:53;;;;;;;7.75;3.47;;;15.60;99.90;;;;;;4997537;28;20054;-87
2022/06/13 07:08:20;;;;;;;4.00;2.80;;;15.60;99.90;;;;;;4985929;28;20529;-87
2022/06/13 07:10:50;;;;;;;5.22;2.65;;;15.70;99.90;;;;;;5007737;28;20108;-86
2022/06/13 07:13:19;;;;;;;10.02;3.13;;;15.70;99.90;;;;;;5004493;28;20042;-84
2022/06/13 07:15:48;;;;;;;3.60;2.63;;;15.60;99.90;;;;;;5002041;28;20049;-87
2022/06/13 07:18:16;;;;;;;10.25;2.67;;;15.70;99.90;;;;;;4993157;28;20776;-86
2022/06/13 07:20:44;;;;;;;5.53;2.55;;;15.80;99.90;;;;;;5005188;28;20152;-83
2022/06/13 07:23:12;;;;;;;4.30;1.98;;;15.90;99.90;;;;;;4984525;28;20495;-87
2022/06/13 07:25:39;;;;;;;5.68;2.90;;;15.90;99.90;;;;;;5004352;28;20054;-88
2022/06/13 07:28:06;;;;;;;5.43;2.60;;;16.10;99.90;;;;;;5007102;28;20049;-87
2022/06/13 07:30:33;;;;;;;5.20;4.25;;;16.20;99.90;;;;;;5001738;28;20144;-86
2022/06/13 07:33:01;;;;;;;7.38;3.10;;;16.30;99.90;;;;;;5004790;28;20061;-86
2022/06/13 07:35:28;;;;;;;3.78;2.33;;;16.20;99.90;;;;;;5004923;28;20050;-88
2022/06/13 07:40:41;;;;;;;5.05;2.50;;;16.20;99.90;;;;;;5003081;28;20104;-88
2022/06/13 07:43:25;;;;;;;7.68;3.25;;;16.30;99.90;;;;;;5007872;28;20101;-87
2022/06/13 07:45:52;;;;;;;6.70;2.88;;;16.40;99.90;;;;;;4986395;28;20046;-88
2022/06/13 07:48:26;;;;;;;5.22;2.10;;;16.50;99.90;;;;;;4988222;28;20654;-87
2022/06/13 07:50:54;;;;;;;8.57;2.97;;;16.50;99.90;;;;;;5003579;28;20046;-87
2022/06/13 07:53:22;;;;;;;5.88;2.33;;;16.50;99.90;;;;;;4995657;28;20414;-84
2022/06/13 07:56:13;;;;;;;11.27;2.75;;;16.50;99.90;;;;;;4998313;28;20056;-87
2022/06/13 07:58:42;;;;;;;8.40;2.40;;;16.50;99.90;;;;;;4996289;28;20420;-87
2022/06/13 08:01:11;;;;;;;3.95;3.17;;;16.40;99.90;;;;;;4968790;28;20053;-87
2022/06/13 08:03:39;;;;;;;5.13;2.58;;;16.40;99.90;;;;;;4992076;28;20056;-88
2022/06/13 08:06:07;;;;;;;5.28;3.03;;;16.40;99.90;;;;;;4987876;28;20396;-87
2022/06/13 08:08:36;;;;;;;8.00;2.70;;;16.50;99.90;;;;;;5005251;28;20589;-88
2022/06/13 08:11:06;;;;;;;9.13;2.78;;;16.40;99.90;;;;;;5001540;28;20061;-86
2022/06/13 08:13:35;;;;;;;7.30;2.85;;;16.40;99.90;;;;;;5001312;28;20045;-86
2022/06/13 08:16:03;;;;;;;4.00;2.30;;;16.30;99.90;;;;;;5007167;28;20064;-87
2022/06/13 08:18:30;;;;;;;4.53;2.40;;;16.30;99.90;;;;;;5004906;28;20129;-87
2022/06/13 08:20:57;;;;;;;6.15;2.97;;;16.30;99.90;;;;;;5002910;28;20058;-87
2022/06/13 08:23:24;;;;;;;4.72;3.83;;;16.30;99.90;;;;;;5005591;28;20049;-87
2022/06/13 08:25:52;;;;;;;3.28;2.25;;;16.50;99.90;;;;;;4970720;28;20077;-88
2022/06/13 08:28:19;;;;;;;6.72;2.25;;;16.70;99.90;;;;;;5001654;28;20104;-87
2022/06/13 08:30:53;;;;;;;5.13;2.15;;;16.80;99.90;;;;;;5008840;28;20053;-87
2022/06/13 08:33:21;;;;;;;5.55;3.03;;;16.90;99.90;;;;;;5001475;28;20062;-86
2022/06/13 08:35:49;;;;;;;4.53;2.30;;;16.90;99.90;;;;;;5001616;28;20112;-87
2022/06/13 08:38:17;;;;;;;15.05;2.92;;;16.90;99.90;;;;;;5002563;28;20078;-87
2022/06/13 08:41:02;;;;;;;4.25;2.15;;;17.00;99.90;;;;;;5000493;28;20400;-88
2022/06/13 08:44:20;;;;;;;5.90;2.47;;;17.10;99.90;;;;;;5003789;28;20046;-88
2022/06/13 08:46:58;;;;;;;3.97;2.88;;;17.20;99.90;;;;;;4960248;28;20042;-88
2022/06/13 08:49:28;;;;;;;4.57;2.33;;;17.20;99.90;;;;;;5002572;28;20049;-88
2022/06/13 08:52:15;;;;;;;6.68;3.45;;;17.20;99.90;;;;;;5000481;28;20436;-87
2022/06/13 08:54:49;;;;;;;5.05;2.72;;;17.10;99.90;;;;;;4988789;28;20458;-86
2022/06/13 08:57:23;;;;;;;8.45;2.63;;;16.90;99.90;;;;;;4980784;28;20054;-87
2022/06/13 08:59:55;;;;;;;7.32;3.13;;;16.80;99.90;;;;;;5008738;28;20494;-88
2022/06/13 09:02:31;;;;;;;7.50;2.50;;;16.90;99.90;;;;;;4973817;28;20057;-88
2022/06/13 09:05:33;;;;;;;5.78;2.35;;;17.00;99.90;;;;;;5005015;28;20126;-88
2022/06/13 09:08:14;;;;;;;3.28;2.10;;;17.20;99.90;;;;;;5010568;28;20061;-86
2022/06/13 09:10:44;;;;;;;;;;;17.20;99.90;;;;;;5008562;28;20506;-88
2022/06/13 09:13:26;;;;;;;5.28;2.05;;;17.40;99.90;;;;;;5005294;28;20075;-86
2022/06/13 09:16:03;;;;;;;5.78;2.67;;;17.50;99.90;;;;;;5014596;28;20060;-88
2022/06/13 09:18:46;;;;;;;4.75;2.85;;;17.40;99.90;;;;;;4977391;28;20156;-87
2022/06/13 09:21:56;;;;;;;3.97;2.17;;;17.40;99.90;;;;;;5005883;28;20050;-88
2022/06/13 09:24:35;;;;;;;4.38;2.22;;;17.40;99.90;;;;;;4987180;28;20141;-88
2022/06/13 09:27:33;;;;;;;3.10;1.67;;;17.50;99.90;;;;;;5001746;28;20058;-87
2022/06/13 09:30:09;;;;;;;4.72;2.95;;;17.70;99.90;;;;;;4976437;28;20368;-88
2022/06/13 09:32:41;;;;;;;5.50;2.50;;;17.50;99.90;;;;;;5004804;28;20038;-88
2022/06/13 09:35:21;;;;;;;4.32;2.60;;;17.60;99.90;;;;;;5000517;28;20141;-88
2022/06/13 09:37:56;;;;;;;5.22;3.03;;;17.40;99.90;;;;;;5005212;28;20475;-89
2022/06/13 09:40:37;;;;;;;7.15;2.78;;;17.40;99.90;;;;;;5002116;28;20050;-88
2022/06/13 09:43:50;;;;;;;6.07;2.83;;;17.40;99.90;;;;;;5001281;28;20049;-87
2022/06/13 09:46:20;;;;;;;5.20;2.50;;;17.50;99.90;;;;;;5000634;28;20041;-87
2022/06/13 09:49:05;;;;;;;5.22;3.13;;;17.70;99.90;;;;;;5010057;28;20053;-88
2022/06/13 09:52:21;;;;;;;6.82;2.67;;;17.90;99.90;;;;;;5007429;28;20145;-88
2022/06/13 09:55:15;;;;;;;9.23;3.42;;;17.90;99.90;;;;;;4955118;28;20066;-87
2022/06/13 09:58:07;;;;;;;6.03;2.80;;;18.00;99.90;;;;;;4981302;28;20088;-88
2022/06/13 10:00:52;;;;;;;5.22;3.33;;;17.80;99.90;;;;;;4992026;28;20050;-89
2022/06/13 10:03:56;;;;;;;4.53;2.25;;;17.70;99.90;;;;;;4972110;28;20045;-90
2022/06/13 10:06:42;;;;;;;5.32;2.95;;;17.80;99.90;;;;;;4984245;28;20056;-89
2022/06/13 10:09:14;;;;;;;10.07;3.00;;;17.50;99.90;;;;;;4992418;28;20054;-87
2022/06/13 10:11:52;;;;;;;6.35;2.88;;;17.30;99.90;;;;;;4961731;28;20066;-87
2022/06/13 10:14:43;;;;;;;6.53;3.60;;;17.20;99.90;;;;;;5002421;28;20130;-88
2022/06/13 10:17:25;;;;;;;7.75;3.42;;;17.40;99.90;;;;;;4999632;28;20163;-85
2022/06/13 10:20:14;;;;;;;5.55;3.60;;;17.40;99.90;;;;;;4985831;28;20052;-87
2022/06/13 10:23:05;;;;;;;9.48;3.60;;;17.20;99.90;;;;;;4985346;28;20577;-85
2022/06/13 10:25:38;;;;;;;5.80;3.35;;;16.90;99.90;;;;;;4986166;28;20053;-88
2022/06/13 10:28:23;;;;;;;8.02;3.38;;;16.80;99.90;;;;;;4988040;28;20529;-87
2022/06/13 10:31:08;;;;;;;6.30;3.03;;;16.70;99.90;;;;;;5007573;28;20478;-89
2022/06/13 10:34:13;;;;;;;4.70;2.50;;;16.60;99.90;;;;;;5006627;28;20060;-86
2022/06/13 10:36:59;;;;;;;6.18;2.65;;;16.80;99.90;;;;;;4980239;28;20050;-90
2022/06/13 10:39:27;;;;;;;4.72;2.50;;;16.90;99.90;;;;;;5000831;28;20807;-89
2022/06/13 10:41:58;;;;;;;6.22;2.90;;;17.00;99.90;;;;;;5000514;28;20115;-89
2022/06/13 10:44:26;;;;;;;5.57;3.22;;;17.10;99.90;;;;;;5001997;28;20053;-89
2022/06/13 10:47:16;;;;;;;5.70;2.65;;;17.00;99.90;;;;;;4993225;28;20069;-89
2022/06/13 10:49:50;;;;;;;9.60;2.92;;;16.80;99.90;;;;;;5003915;28;20413;-89
2022/06/13 10:52:21;;;;;;;5.00;2.28;;;16.80;99.90;;;;;;5002688;28;20173;-88
2022/06/13 10:54:53;;;;;;;3.90;2.90;;;16.80;99.90;;;;;;5003235;28;20125;-89
2022/06/13 10:57:31;;;;;;;5.47;3.83;;;16.90;99.90;;;;;;5006178;28;20217;-87
2022/06/13 11:00:21;;;;;;;3.80;2.38;;;17.00;99.90;;;;;;5000775;28;20076;-89
2022/06/13 11:02:49;;;;;;;;;;;17.00;99.90;;;;;;4997440;28;20081;-87
2022/06/13 11:05:20;;;;;;;9.40;3.35;;;17.10;99.90;;;;;;5003692;28;19925;-88
2022/06/13 11:07:51;;;;;;;4.22;2.75;;;16.90;99.90;;;;;;5002681;28;20053;-89
2022/06/13 11:10:21;;;;;;;5.38;1.88;;;16.60;99.90;;;;;;5004358;28;20122;-86
2022/06/13 11:12:51;;;;;;;1.77;1.55;;;16.30;99.90;;;;;;5008306;28;20046;-90
2022/06/13 11:24:29;;;;;;;2.85;1.65;;;16.80;99.90;;;;;;5004094;28;20041;-86
2022/06/13 11:29:43;;;;;;;5.00;2.03;;;17.00;99.90;;;;;;5005121;28;20068;-89
2022/06/13 11:32:22;;;;;;;1.85;1.60;;;17.10;99.90;;;;;;5003694;28;20135;-87
2022/06/13 11:34:49;;;;;;;5.03;1.38;;;17.00;99.90;;;;;;4987237;28;20050;-88
2022/06/13 11:37:22;;;;;;;3.78;1.52;;;16.90;99.90;;;;;;5005359;28;20049;-87
2022/06/13 11:39:51;;;;;;;1.63;1.23;;;16.90;99.90;;;;;;5004563;28;20096;-89
2022/06/13 11:42:26;;;;;;;3.72;1.73;;;17.00;99.90;;;;;;4986484;28;20054;-87
2022/06/13 11:45:17;;;;;;;4.38;1.08;;;17.30;99.90;;;;;;5002848;28;20066;-89
2022/06/13 11:47:52;;;;;;;1.40;1.00;;;17.40;99.90;;;;;;4985878;28;20053;-89
2022/06/13 11:50:19;;;;;;;3.72;1.00;;;17.60;99.90;;;;;;5006969;28;20100;-88
2022/06/13 11:55:43;;;;;;;2.13;0.98;;;17.50;99.90;;;;;;5008607;28;20038;-87
2022/06/13 11:58:41;;;;;;;1.70;1.30;;;17.40;99.90;;;;;;5005602;28;20042;-89
2022/06/13 12:01:10;;;;;;;2.92;1.38;;;17.60;99.90;;;;;;5002430;28;20046;-88
2022/06/13 12:03:42;;;;;;;4.15;1.20;;;17.80;99.90;;;;;;4987982;28;20049;-89
2022/06/13 12:06:14;;;;;;;2.95;1.13;;;18.00;99.90;;;;;;5000399;28;20047;-90
2022/06/13 12:08:42;;;;;;;1.80;1.42;;;17.90;99.90;;;;;;5003981;28;20474;-89
2022/06/13 12:11:29;;;;;;;1.23;0.80;;;18.00;99.90;;;;;;4986148;28;20046;-89
2022/06/13 12:14:01;;;;;;;0.80;0.60;;;17.90;99.90;;;;;;4988212;28;20049;-89
2022/06/13 12:16:40;;;;;;;2.15;1.25;;;17.90;99.90;;;;;;4985458;28;20486;-87
2022/06/13 12:19:28;;;;;;;3.20;1.33;;;18.00;99.90;;;;;;5004314;28;20104;-87
2022/06/13 12:22:12;;;;;;;9.50;2.33;;;18.00;99.90;;;;;;5001200;28;20053;-88
2022/06/13 12:25:04;;;;;;;2.00;1.05;;;18.10;99.90;;;;;;4984025;28;20403;-88
2022/06/13 12:27:39;;;;;;;2.60;1.58;;;18.10;99.90;;;;;;5010806;28;20059;-88
2022/06/13 12:30:25;;;;;;;1.92;0.82;;;18.10;99.90;;;;;;5000107;28;20057;-89
2022/06/13 12:33:17;;;;;;;0.88;0.80;;;18.20;99.90;;;;;;5001344;28;20755;-87
2022/06/13 12:35:52;;;;;;;4.85;0.90;;;18.20;99.90;;;;;;5003900;28;20152;-87
2022/06/13 12:38:56;;;;;;;2.17;0.70;;;18.30;99.90;;;;;;4992210;28;20128;-88
2022/06/13 12:42:01;;;;;;;6.85;1.23;;;18.40;99.90;;;;;;4986109;28;20042;-89
2022/06/13 12:44:37;;;;;;;3.63;1.13;;;18.60;99.90;;;;;;5006251;28;20072;-89
2022/06/13 12:47:26;;;;;;;3.75;1.60;;;18.40;99.90;;;;;;5001161;28;20061;-86
2022/06/13 12:50:14;;;;;;;3.28;1.15;;;18.50;99.90;;;;;;5003694;28;20144;-89
2022/06/13 12:53:04;;;;;;;3.63;1.42;;;18.80;99.90;;;;;;4967552;28;20482;-88
2022/06/13 12:56:06;;;;;;;4.05;1.23;;;19.00;99.90;;;;;;4986980;28;20049;-90
2022/06/13 12:58:47;;;;;;;3.25;1.30;;;19.00;99.90;;;;;;5001355;28;20428;-88
2022/06/13 13:01:41;;;;;;;2.50;1.00;;;19.10;99.90;;;;;;5006323;28;20498;-89
2022/06/13 13:04:25;;;;;;;2.22;0.60;;;19.00;99.90;;;;;;5000679;28;20223;-89
2022/06/13 13:06:54;;;;;;;2.35;0.63;;;19.20;99.90;;;;;;5001916;28;20048;-90
2022/06/13 13:09:51;;;;;;;2.83;1.20;;;19.20;99.90;;;;;;5001454;28;20053;-89
2022/06/13 13:12:45;;;;;;;1.98;1.67;;;19.00;99.90;;;;;;4988944;28;20072;-89
2022/06/13 13:15:33;;;;;;;2.85;1.48;;;19.10;99.90;;;;;;5002403;28;20045;-89
2022/06/13 13:18:34;;;;;;;2.55;1.10;;;19.20;99.90;;;;;;5004658;28;20156;-89
2022/06/13 13:21:06;;;;;;;;;;;19.30;99.90;;;;;;5002904;28;20053;-90
2022/06/13 13:23:51;;;;;;;4.03;1.73;;;19.40;99.90;;;;;;4993199;28;20581;-88
2022/06/13 13:26:24;;;;;;;3.92;2.97;;;19.40;99.90;;;;;;5000080;28;20038;-88
2022/06/13 13:28:57;;;;;;;3.45;1.80;;;19.60;99.90;;;;;;5004031;28;20810;-89
2022/06/13 13:31:36;;;;;;;2.63;1.45;;;19.40;99.90;;;;;;5004611;28;20049;-88
2022/06/13 13:34:16;;;;;;;1.98;1.45;;;19.40;99.90;;;;;;5003425;28;20082;-90
2022/06/13 13:37:11;;;;;;;3.50;1.33;;;19.40;99.90;;;;;;5002376;28;20059;-89
2022/06/13 13:40:01;;;;;;;1.88;1.58;;;19.60;99.90;;;;;;5008409;28;20062;-89
2022/06/13 13:42:36;;;;;;;9.00;2.38;;;19.50;99.90;;;;;;4975427;28;20123;-88
2022/06/13 13:45:03;;;;;;;2.33;1.23;;;19.60;99.90;;;;;;4984820;28;20049;-90
2022/06/13 13:47:34;;;;;;;2.67;1.65;;;19.70;99.90;;;;;;4993390;28;20080;-88
2022/06/13 13:50:13;;;;;;;4.00;1.70;;;19.70;99.90;;;;;;4988161;28;20561;-88
2022/06/13 13:52:43;;;;;;;3.35;2.15;;;19.60;99.90;;;;;;5003648;28;20766;-89
2022/06/13 13:55:21;;;;;;;3.03;1.30;;;19.80;99.90;;;;;;4994086;28;20053;-90
2022/06/13 13:57:55;;;;;;;3.38;1.65;;;20.10;99.90;;;;;;4998301;28;20049;-90
2022/06/13 14:00:33;;;;;;;2.05;1.50;;;20.10;99.90;;;;;;4970493;28;20061;-89
2022/06/13 14:03:32;;;;;;;1.52;1.40;;;20.40;99.90;;;;;;4988219;28;20041;-88
2022/06/13 14:06:08;;;;;;;3.20;1.00;;;20.30;99.90;;;;;;5006940;28;20340;-90